sensor_id;sensor_type;location;lat;lon;timestamp;P1;durP1;ratioP1;P2;durP2;ratioP2
22656;SDS011;11495;55.610;12.100;2023-07-29T00:01:08;6.30;;;3.03;;
22656;SDS011;11495;55.610;12.100;2023-07-29T00:03:33;4.43;;;2.80;;
22656;SDS011;11495;55.610;12.100;2023-07-29T00:05:58;3.72;;;2.35;;
22656;SDS011;11495;55.610;12.100;2023-07-29T00:08:24;4.30;;;3.28;;
22656;SDS011;11495;55.610;12.100;2023-07-29T00:10:49;3.92;;;2.80;;
22656;SDS011;11495;55.610;12.100;2023-07-29T00:13:14;6.13;;;2.80;;
22656;SDS011;11495;55.610;12.100;2023-07-29T00:15:39;4.70;;;3.47;;
22656;SDS011;11495;55.610;12.100;2023-07-29T00:18:05;4.30;;;3.50;;
22656;SDS011;11495;55.610;12.100;2023-07-29T00:20:30;4.37;;;3.53;;
22656;SDS011;11495;55.610;12.100;2023-07-29T00:22:55;4.07;;;3.37;;
22656;SDS011;11495;55.610;12.100;2023-07-29T00:25:22;2.83;;;1.98;;
22656;SDS011;11495;55.610;12.100;2023-07-29T00:27:47;4.47;;;3.17;;
22656;SDS011;11495;55.610;12.100;2023-07-29T00:30:12;4.12;;;3.28;;
22656;SDS011;11495;55.610;12.100;2023-07-29T00:32:37;4.43;;;3.70;;
22656;SDS011;11495;55.610;12.100;2023-07-29T00:35:03;4.32;;;3.40;;
22656;SDS011;11495;55.610;12.100;2023-07-29T00:37:29;5.28;;;3.25;;
22656;SDS011;11495;55.610;12.100;2023-07-29T00:39:55;4.90;;;3.30;;
22656;SDS011;11495;55.610;12.100;2023-07-29T00:42:20;3.20;;;2.80;;
22656;SDS011;11495;55.610;12.100;2023-07-29T00:44:45;5.37;;;3.30;;
22656;SDS011;11495;55.610;12.100;2023-07-29T00:47:11;4.83;;;3.37;;
22656;SDS011;11495;55.610;12.100;2023-07-29T00:49:36;3.20;;;2.62;;
22656;SDS011;11495;55.610;12.100;2023-07-29T00:52:01;3.60;;;3.10;;
22656;SDS011;11495;55.610;12.100;2023-07-29T00:54:27;3.67;;;2.20;;
22656;SDS011;11495;55.610;12.100;2023-07-29T00:56:52;4.63;;;2.97;;
22656;SDS011;11495;55.610;12.100;2023-07-29T00:59:17;2.20;;;2.00;;
22656;SDS011;11495;55.610;12.100;2023-07-29T01:01:42;2.90;;;2.43;;
22656;SDS011;11495;55.610;12.100;2023-07-29T01:04:08;2.83;;;2.53;;
22656;SDS011;11495;55.610;12.100;2023-07-29T01:09:05;3.25;;;2.42;;
22656;SDS011;11495;55.610;12.100;2023-07-29T01:11:41;5.07;;;2.62;;
22656;SDS011;11495;55.610;12.100;2023-07-29T01:14:18;3.50;;;2.30;;
22656;SDS011;11495;55.610;12.100;2023-07-29T01:16:47;2.70;;;1.90;;
22656;SDS011;11495;55.610;12.100;2023-07-29T01:19:24;4.00;;;2.72;;
22656;SDS011;11495;55.610;12.100;2023-07-29T01:21:53;4.15;;;2.95;;
22656;SDS011;11495;55.610;12.100;2023-07-29T01:24:19;3.87;;;2.67;;
22656;SDS011;11495;55.610;12.100;2023-07-29T01:26:44;2.83;;;2.40;;
22656;SDS011;11495;55.610;12.100;2023-07-29T01:29:09;3.53;;;2.30;;
22656;SDS011;11495;55.610;12.100;2023-07-29T01:31:36;2.80;;;2.37;;
22656;SDS011;11495;55.610;12.100;2023-07-29T01:34:23;2.20;;;2.00;;
22656;SDS011;11495;55.610;12.100;2023-07-29T01:36:50;3.15;;;2.25;;
22656;SDS011;11495;55.610;12.100;2023-07-29T01:39:16;2.72;;;2.33;;
22656;SDS011;11495;55.610;12.100;2023-07-29T01:41:42;3.62;;;2.47;;
22656;SDS011;11495;55.610;12.100;2023-07-29T01:44:08;3.50;;;2.62;;
22656;SDS011;11495;55.610;12.100;2023-07-29T01:46:34;2.42;;;1.87;;
22656;SDS011;11495;55.610;12.100;2023-07-29T01:48:59;3.90;;;2.57;;
22656;SDS011;11495;55.610;12.100;2023-07-29T01:51:25;2.83;;;2.23;;
22656;SDS011;11495;55.610;12.100;2023-07-29T01:53:50;2.03;;;1.67;;
22656;SDS011;11495;55.610;12.100;2023-07-29T01:56:15;1.92;;;1.58;;
22656;SDS011;11495;55.610;12.100;2023-07-29T01:58:41;3.33;;;2.53;;
22656;SDS011;11495;55.610;12.100;2023-07-29T02:01:06;4.33;;;2.30;;
22656;SDS011;11495;55.610;12.100;2023-07-29T02:03:31;3.15;;;2.70;;
22656;SDS011;11495;55.610;12.100;2023-07-29T02:05:57;4.03;;;2.63;;
22656;SDS011;11495;55.610;12.100;2023-07-29T02:08:22;3.40;;;2.53;;
22656;SDS011;11495;55.610;12.100;2023-07-29T02:10:47;3.07;;;2.70;;
22656;SDS011;11495;55.610;12.100;2023-07-29T02:13:13;2.40;;;1.98;;
22656;SDS011;11495;55.610;12.100;2023-07-29T02:15:39;2.70;;;2.25;;
22656;SDS011;11495;55.610;12.100;2023-07-29T02:18:04;2.80;;;2.07;;
22656;SDS011;11495;55.610;12.100;2023-07-29T02:20:31;2.60;;;2.22;;
22656;SDS011;11495;55.610;12.100;2023-07-29T02:22:56;3.00;;;2.13;;
22656;SDS011;11495;55.610;12.100;2023-07-29T02:25:22;1.77;;;1.62;;
22656;SDS011;11495;55.610;12.100;2023-07-29T02:27:47;3.17;;;2.40;;
22656;SDS011;11495;55.610;12.100;2023-07-29T02:30:12;3.87;;;2.60;;
22656;SDS011;11495;55.610;12.100;2023-07-29T02:32:37;3.40;;;2.40;;
22656;SDS011;11495;55.610;12.100;2023-07-29T02:35:03;4.28;;;3.22;;
22656;SDS011;11495;55.610;12.100;2023-07-29T02:37:29;4.68;;;3.33;;
22656;SDS011;11495;55.610;12.100;2023-07-29T02:39:55;3.47;;;2.37;;
22656;SDS011;11495;55.610;12.100;2023-07-29T02:42:20;3.50;;;2.50;;
22656;SDS011;11495;55.610;12.100;2023-07-29T02:44:45;3.73;;;2.70;;
22656;SDS011;11495;55.610;12.100;2023-07-29T02:47:10;3.47;;;2.70;;
22656;SDS011;11495;55.610;12.100;2023-07-29T02:49:36;3.78;;;3.22;;
22656;SDS011;11495;55.610;12.100;2023-07-29T02:52:01;3.43;;;2.90;;
22656;SDS011;11495;55.610;12.100;2023-07-29T02:54:26;3.12;;;2.55;;
22656;SDS011;11495;55.610;12.100;2023-07-29T02:56:51;4.00;;;3.03;;
22656;SDS011;11495;55.610;12.100;2023-07-29T02:59:17;4.00;;;2.40;;
22656;SDS011;11495;55.610;12.100;2023-07-29T03:01:42;2.00;;;1.80;;
22656;SDS011;11495;55.610;12.100;2023-07-29T03:04:07;3.20;;;2.47;;
22656;SDS011;11495;55.610;12.100;2023-07-29T03:06:33;4.35;;;2.92;;
22656;SDS011;11495;55.610;12.100;2023-07-29T03:08:58;4.90;;;3.42;;
22656;SDS011;11495;55.610;12.100;2023-07-29T03:11:23;4.07;;;2.20;;
22656;SDS011;11495;55.610;12.100;2023-07-29T03:13:48;5.83;;;3.00;;
22656;SDS011;11495;55.610;12.100;2023-07-29T03:16:15;4.47;;;2.93;;
22656;SDS011;11495;55.610;12.100;2023-07-29T03:18:41;3.53;;;2.50;;
22656;SDS011;11495;55.610;12.100;2023-07-29T03:21:06;4.55;;;2.90;;
22656;SDS011;11495;55.610;12.100;2023-07-29T03:23:32;4.55;;;3.15;;
22656;SDS011;11495;55.610;12.100;2023-07-29T03:25:58;5.70;;;3.08;;
22656;SDS011;11495;55.610;12.100;2023-07-29T03:28:24;5.93;;;4.45;;
22656;SDS011;11495;55.610;12.100;2023-07-29T03:30:50;3.42;;;2.75;;
22656;SDS011;11495;55.610;12.100;2023-07-29T03:33:15;5.40;;;3.72;;
22656;SDS011;11495;55.610;12.100;2023-07-29T03:35:40;3.03;;;2.60;;
22656;SDS011;11495;55.610;12.100;2023-07-29T03:38:09;6.15;;;4.50;;
22656;SDS011;11495;55.610;12.100;2023-07-29T03:40:34;4.73;;;3.20;;
22656;SDS011;11495;55.610;12.100;2023-07-29T03:42:59;3.17;;;2.87;;
22656;SDS011;11495;55.610;12.100;2023-07-29T03:45:25;5.13;;;3.60;;
22656;SDS011;11495;55.610;12.100;2023-07-29T03:47:50;4.87;;;3.33;;
22656;SDS011;11495;55.610;12.100;2023-07-29T03:50:15;3.57;;;3.00;;
22656;SDS011;11495;55.610;12.100;2023-07-29T03:52:40;4.43;;;3.47;;
22656;SDS011;11495;55.610;12.100;2023-07-29T03:55:06;4.33;;;3.00;;
22656;SDS011;11495;55.610;12.100;2023-07-29T03:57:31;5.82;;;3.03;;
22656;SDS011;11495;55.610;12.100;2023-07-29T03:59:56;7.37;;;3.03;;
22656;SDS011;11495;55.610;12.100;2023-07-29T04:02:21;3.83;;;2.30;;
22656;SDS011;11495;55.610;12.100;2023-07-29T04:04:47;3.63;;;2.90;;
22656;SDS011;11495;55.610;12.100;2023-07-29T04:07:13;4.90;;;2.65;;
22656;SDS011;11495;55.610;12.100;2023-07-29T04:09:39;3.50;;;2.90;;
22656;SDS011;11495;55.610;12.100;2023-07-29T04:12:04;4.78;;;3.37;;
22656;SDS011;11495;55.610;12.100;2023-07-29T04:14:30;4.32;;;3.33;;
22656;SDS011;11495;55.610;12.100;2023-07-29T04:16:55;3.75;;;2.78;;
22656;SDS011;11495;55.610;12.100;2023-07-29T04:19:20;4.72;;;3.42;;
22656;SDS011;11495;55.610;12.100;2023-07-29T04:21:45;2.77;;;2.33;;
22656;SDS011;11495;55.610;12.100;2023-07-29T04:24:11;5.75;;;3.47;;
22656;SDS011;11495;55.610;12.100;2023-07-29T04:26:36;6.30;;;2.95;;
22656;SDS011;11495;55.610;12.100;2023-07-29T04:29:04;3.03;;;2.72;;
22656;SDS011;11495;55.610;12.100;2023-07-29T04:31:29;2.63;;;2.17;;
22656;SDS011;11495;55.610;12.100;2023-07-29T04:33:54;3.12;;;2.58;;
22656;SDS011;11495;55.610;12.100;2023-07-29T04:36:19;7.13;;;3.37;;
22656;SDS011;11495;55.610;12.100;2023-07-29T04:38:45;4.50;;;3.40;;
22656;SDS011;11495;55.610;12.100;2023-07-29T04:41:10;4.97;;;2.80;;
22656;SDS011;11495;55.610;12.100;2023-07-29T04:43:36;5.72;;;3.75;;
22656;SDS011;11495;55.610;12.100;2023-07-29T04:46:01;4.50;;;3.30;;
22656;SDS011;11495;55.610;12.100;2023-07-29T04:48:26;3.65;;;3.00;;
22656;SDS011;11495;55.610;12.100;2023-07-29T04:50:52;5.43;;;2.85;;
22656;SDS011;11495;55.610;12.100;2023-07-29T04:53:17;6.10;;;3.80;;
22656;SDS011;11495;55.610;12.100;2023-07-29T04:55:42;5.33;;;3.00;;
22656;SDS011;11495;55.610;12.100;2023-07-29T04:58:08;4.18;;;3.17;;
22656;SDS011;11495;55.610;12.100;2023-07-29T05:00:33;4.07;;;2.83;;
22656;SDS011;11495;55.610;12.100;2023-07-29T05:02:59;5.18;;;3.40;;
22656;SDS011;11495;55.610;12.100;2023-07-29T05:05:24;4.18;;;2.78;;
22656;SDS011;11495;55.610;12.100;2023-07-29T05:07:49;4.20;;;2.93;;
22656;SDS011;11495;55.610;12.100;2023-07-29T05:10:14;3.63;;;2.57;;
22656;SDS011;11495;55.610;12.100;2023-07-29T05:12:40;6.43;;;2.62;;
22656;SDS011;11495;55.610;12.100;2023-07-29T05:15:05;5.97;;;3.08;;
22656;SDS011;11495;55.610;12.100;2023-07-29T05:17:31;4.53;;;3.20;;
22656;SDS011;11495;55.610;12.100;2023-07-29T05:19:56;4.87;;;2.87;;
22656;SDS011;11495;55.610;12.100;2023-07-29T05:22:21;4.72;;;3.10;;
22656;SDS011;11495;55.610;12.100;2023-07-29T05:24:46;3.58;;;3.20;;
22656;SDS011;11495;55.610;12.100;2023-07-29T05:27:12;3.47;;;3.08;;
22656;SDS011;11495;55.610;12.100;2023-07-29T05:29:37;4.03;;;3.40;;
22656;SDS011;11495;55.610;12.100;2023-07-29T05:32:02;3.70;;;3.10;;
22656;SDS011;11495;55.610;12.100;2023-07-29T05:34:28;4.25;;;2.70;;
22656;SDS011;11495;55.610;12.100;2023-07-29T05:36:53;7.63;;;2.87;;
22656;SDS011;11495;55.610;12.100;2023-07-29T05:39:18;6.00;;;3.57;;
22656;SDS011;11495;55.610;12.100;2023-07-29T05:41:43;4.87;;;3.55;;
22656;SDS011;11495;55.610;12.100;2023-07-29T05:44:09;3.53;;;2.80;;
22656;SDS011;11495;55.610;12.100;2023-07-29T05:46:34;3.60;;;3.25;;
22656;SDS011;11495;55.610;12.100;2023-07-29T05:48:59;3.40;;;2.70;;
22656;SDS011;11495;55.610;12.100;2023-07-29T05:51:25;2.97;;;2.67;;
22656;SDS011;11495;55.610;12.100;2023-07-29T05:53:50;4.47;;;2.63;;
22656;SDS011;11495;55.610;12.100;2023-07-29T05:56:15;2.90;;;2.40;;
22656;SDS011;11495;55.610;12.100;2023-07-29T05:58:40;5.83;;;3.07;;
22656;SDS011;11495;55.610;12.100;2023-07-29T06:01:06;3.13;;;2.73;;
22656;SDS011;11495;55.610;12.100;2023-07-29T06:03:31;2.30;;;2.03;;
22656;SDS011;11495;55.610;12.100;2023-07-29T06:05:56;2.50;;;2.30;;
22656;SDS011;11495;55.610;12.100;2023-07-29T06:08:21;2.87;;;2.53;;
22656;SDS011;11495;55.610;12.100;2023-07-29T06:10:47;3.00;;;2.63;;
22656;SDS011;11495;55.610;12.100;2023-07-29T06:13:12;3.70;;;2.93;;
22656;SDS011;11495;55.610;12.100;2023-07-29T06:15:37;2.37;;;2.17;;
22656;SDS011;11495;55.610;12.100;2023-07-29T06:18:03;3.30;;;2.33;;
22656;SDS011;11495;55.610;12.100;2023-07-29T06:20:28;2.87;;;2.37;;
22656;SDS011;11495;55.610;12.100;2023-07-29T06:22:53;4.28;;;2.53;;
22656;SDS011;11495;55.610;12.100;2023-07-29T06:25:19;3.27;;;2.63;;
22656;SDS011;11495;55.610;12.100;2023-07-29T06:27:44;3.25;;;2.53;;
22656;SDS011;11495;55.610;12.100;2023-07-29T06:30:09;2.83;;;2.53;;
22656;SDS011;11495;55.610;12.100;2023-07-29T06:32:35;2.78;;;2.33;;
22656;SDS011;11495;55.610;12.100;2023-07-29T06:35:00;2.80;;;2.53;;
22656;SDS011;11495;55.610;12.100;2023-07-29T06:37:25;3.55;;;2.75;;
22656;SDS011;11495;55.610;12.100;2023-07-29T06:39:50;1.98;;;1.83;;
22656;SDS011;11495;55.610;12.100;2023-07-29T06:42:16;2.80;;;2.23;;
22656;SDS011;11495;55.610;12.100;2023-07-29T06:44:41;3.33;;;1.90;;
22656;SDS011;11495;55.610;12.100;2023-07-29T06:47:06;2.80;;;2.45;;
22656;SDS011;11495;55.610;12.100;2023-07-29T06:49:32;3.70;;;3.00;;
22656;SDS011;11495;55.610;12.100;2023-07-29T06:51:57;3.87;;;2.40;;
22656;SDS011;11495;55.610;12.100;2023-07-29T06:54:25;5.73;;;3.37;;
22656;SDS011;11495;55.610;12.100;2023-07-29T06:56:51;5.12;;;3.00;;
22656;SDS011;11495;55.610;12.100;2023-07-29T06:59:16;3.42;;;2.83;;
22656;SDS011;11495;55.610;12.100;2023-07-29T07:01:42;3.20;;;2.90;;
22656;SDS011;11495;55.610;12.100;2023-07-29T07:04:08;3.37;;;2.78;;
22656;SDS011;11495;55.610;12.100;2023-07-29T07:06:33;3.57;;;2.90;;
22656;SDS011;11495;55.610;12.100;2023-07-29T07:08:58;2.90;;;2.03;;
22656;SDS011;11495;55.610;12.100;2023-07-29T07:11:24;3.27;;;2.93;;
22656;SDS011;11495;55.610;12.100;2023-07-29T07:13:50;3.03;;;2.67;;
22656;SDS011;11495;55.610;12.100;2023-07-29T07:16:15;5.83;;;3.53;;
22656;SDS011;11495;55.610;12.100;2023-07-29T07:18:40;3.67;;;2.85;;
22656;SDS011;11495;55.610;12.100;2023-07-29T07:21:05;3.33;;;3.03;;
22656;SDS011;11495;55.610;12.100;2023-07-29T07:23:31;3.50;;;2.53;;
22656;SDS011;11495;55.610;12.100;2023-07-29T07:25:56;2.10;;;1.90;;
22656;SDS011;11495;55.610;12.100;2023-07-29T07:28:21;2.30;;;2.03;;
22656;SDS011;11495;55.610;12.100;2023-07-29T07:30:46;2.00;;;1.80;;
22656;SDS011;11495;55.610;12.100;2023-07-29T07:33:11;2.70;;;2.20;;
22656;SDS011;11495;55.610;12.100;2023-07-29T07:35:37;2.80;;;2.30;;
22656;SDS011;11495;55.610;12.100;2023-07-29T07:38:02;3.67;;;3.08;;
22656;SDS011;11495;55.610;12.100;2023-07-29T07:40:30;2.65;;;2.03;;
22656;SDS011;11495;55.610;12.100;2023-07-29T07:42:55;2.30;;;1.73;;
22656;SDS011;11495;55.610;12.100;2023-07-29T07:45:20;2.33;;;2.00;;
22656;SDS011;11495;55.610;12.100;2023-07-29T07:47:45;1.57;;;1.47;;
22656;SDS011;11495;55.610;12.100;2023-07-29T07:50:11;1.60;;;1.50;;
22656;SDS011;11495;55.610;12.100;2023-07-29T07:52:36;1.60;;;1.50;;
22656;SDS011;11495;55.610;12.100;2023-07-29T07:55:02;1.30;;;1.20;;
22656;SDS011;11495;55.610;12.100;2023-07-29T07:57:27;1.95;;;1.60;;
22656;SDS011;11495;55.610;12.100;2023-07-29T07:59:52;2.20;;;2.00;;
22656;SDS011;11495;55.610;12.100;2023-07-29T08:02:18;2.70;;;1.80;;
22656;SDS011;11495;55.610;12.100;2023-07-29T08:04:43;2.47;;;1.70;;
22656;SDS011;11495;55.610;12.100;2023-07-29T08:07:08;2.70;;;1.23;;
22656;SDS011;11495;55.610;12.100;2023-07-29T08:09:34;2.70;;;1.50;;
22656;SDS011;11495;55.610;12.100;2023-07-29T08:11:59;1.70;;;1.60;;
22656;SDS011;11495;55.610;12.100;2023-07-29T08:14:24;1.40;;;1.30;;
22656;SDS011;11495;55.610;12.100;2023-07-29T08:16:49;3.83;;;1.50;;
22656;SDS011;11495;55.610;12.100;2023-07-29T08:19:15;2.67;;;1.27;;
22656;SDS011;11495;55.610;12.100;2023-07-29T08:21:40;1.23;;;1.13;;
22656;SDS011;11495;55.610;12.100;2023-07-29T08:24:05;2.47;;;1.70;;
22656;SDS011;11495;55.610;12.100;2023-07-29T08:26:32;2.20;;;1.67;;
22656;SDS011;11495;55.610;12.100;2023-07-29T08:28:57;2.10;;;1.37;;
22656;SDS011;11495;55.610;12.100;2023-07-29T08:31:22;1.97;;;1.53;;
22656;SDS011;11495;55.610;12.100;2023-07-29T08:33:48;2.90;;;1.43;;
22656;SDS011;11495;55.610;12.100;2023-07-29T08:36:13;1.77;;;1.37;;
22656;SDS011;11495;55.610;12.100;2023-07-29T08:38:38;1.50;;;1.40;;
22656;SDS011;11495;55.610;12.100;2023-07-29T08:43:32;0.95;;;0.95;;
22656;SDS011;11495;55.610;12.100;2023-07-29T08:46:00;1.02;;;1.00;;
22656;SDS011;11495;55.610;12.100;2023-07-29T08:48:29;2.62;;;1.40;;
22656;SDS011;11495;55.610;12.100;2023-07-29T08:50:56;1.25;;;1.17;;
22656;SDS011;11495;55.610;12.100;2023-07-29T08:53:22;1.48;;;1.17;;
22656;SDS011;11495;55.610;12.100;2023-07-29T08:55:48;1.55;;;1.30;;
22656;SDS011;11495;55.610;12.100;2023-07-29T08:58:13;1.42;;;1.33;;
22656;SDS011;11495;55.610;12.100;2023-07-29T09:00:38;1.57;;;1.10;;
22656;SDS011;11495;55.610;12.100;2023-07-29T09:03:04;1.00;;;1.00;;
22656;SDS011;11495;55.610;12.100;2023-07-29T09:05:32;1.25;;;1.15;;
22656;SDS011;11495;55.610;12.100;2023-07-29T09:07:58;1.70;;;1.12;;
22656;SDS011;11495;55.610;12.100;2023-07-29T09:10:24;0.85;;;0.85;;
22656;SDS011;11495;55.610;12.100;2023-07-29T09:12:50;1.20;;;1.10;;
22656;SDS011;11495;55.610;12.100;2023-07-29T09:15:32;1.25;;;1.00;;
22656;SDS011;11495;55.610;12.100;2023-07-29T09:17:58;0.85;;;0.80;;
22656;SDS011;11495;55.610;12.100;2023-07-29T09:20:24;0.93;;;0.93;;
22656;SDS011;11495;55.610;12.100;2023-07-29T09:22:50;1.00;;;1.00;;
22656;SDS011;11495;55.610;12.100;2023-07-29T09:25:15;0.90;;;0.90;;
22656;SDS011;11495;55.610;12.100;2023-07-29T09:27:42;1.27;;;1.00;;
22656;SDS011;11495;55.610;12.100;2023-07-29T09:30:16;1.17;;;1.08;;
22656;SDS011;11495;55.610;12.100;2023-07-29T09:32:56;1.02;;;0.93;;
22656;SDS011;11495;55.610;12.100;2023-07-29T09:35:22;0.88;;;0.88;;
22656;SDS011;11495;55.610;12.100;2023-07-29T09:37:47;1.23;;;1.12;;
22656;SDS011;11495;55.610;12.100;2023-07-29T09:40:13;1.67;;;1.15;;
22656;SDS011;11495;55.610;12.100;2023-07-29T09:42:40;1.05;;;1.00;;
22656;SDS011;11495;55.610;12.100;2023-07-29T09:45:14;1.15;;;1.00;;
22656;SDS011;11495;55.610;12.100;2023-07-29T09:47:45;1.23;;;1.17;;
22656;SDS011;11495;55.610;12.100;2023-07-29T09:50:11;1.20;;;1.10;;
22656;SDS011;11495;55.610;12.100;2023-07-29T09:52:36;2.93;;;1.13;;
22656;SDS011;11495;55.610;12.100;2023-07-29T09:55:01;1.10;;;1.10;;
22656;SDS011;11495;55.610;12.100;2023-07-29T09:57:27;1.62;;;1.17;;
22656;SDS011;11495;55.610;12.100;2023-07-29T09:59:56;1.27;;;1.17;;
22656;SDS011;11495;55.610;12.100;2023-07-29T10:02:21;0.90;;;0.90;;
22656;SDS011;11495;55.610;12.100;2023-07-29T10:04:51;1.10;;;1.00;;
22656;SDS011;11495;55.610;12.100;2023-07-29T10:07:17;1.10;;;1.00;;
22656;SDS011;11495;55.610;12.100;2023-07-29T10:09:42;0.82;;;0.82;;
22656;SDS011;11495;55.610;12.100;2023-07-29T10:12:08;1.37;;;1.10;;
22656;SDS011;11495;55.610;12.100;2023-07-29T10:14:34;1.25;;;1.15;;
22656;SDS011;11495;55.610;12.100;2023-07-29T10:17:00;2.17;;;1.10;;
22656;SDS011;11495;55.610;12.100;2023-07-29T10:19:25;1.30;;;1.20;;
22656;SDS011;11495;55.610;12.100;2023-07-29T10:21:51;1.30;;;1.20;;
22656;SDS011;11495;55.610;12.100;2023-07-29T10:24:18;1.00;;;1.00;;
22656;SDS011;11495;55.610;12.100;2023-07-29T10:26:46;1.58;;;1.30;;
22656;SDS011;11495;55.610;12.100;2023-07-29T10:29:12;1.48;;;1.20;;
22656;SDS011;11495;55.610;12.100;2023-07-29T10:31:38;1.40;;;1.30;;
22656;SDS011;11495;55.610;12.100;2023-07-29T10:34:05;1.00;;;1.00;;
22656;SDS011;11495;55.610;12.100;2023-07-29T10:36:31;1.17;;;1.08;;
22656;SDS011;11495;55.610;12.100;2023-07-29T10:38:56;1.55;;;1.45;;
22656;SDS011;11495;55.610;12.100;2023-07-29T10:41:21;1.30;;;1.20;;
22656;SDS011;11495;55.610;12.100;2023-07-29T10:43:47;1.40;;;1.30;;
22656;SDS011;11495;55.610;12.100;2023-07-29T10:46:21;1.10;;;1.00;;
22656;SDS011;11495;55.610;12.100;2023-07-29T10:51:25;1.45;;;1.35;;
22656;SDS011;11495;55.610;12.100;2023-07-29T10:53:55;1.58;;;1.48;;
22656;SDS011;11495;55.610;12.100;2023-07-29T10:56:30;1.27;;;1.17;;
22656;SDS011;11495;55.610;12.100;2023-07-29T10:58:56;1.40;;;1.30;;
22656;SDS011;11495;55.610;12.100;2023-07-29T11:01:29;1.85;;;1.62;;
22656;SDS011;11495;55.610;12.100;2023-07-29T11:04:29;1.35;;;1.25;;
22656;SDS011;11495;55.610;12.100;2023-07-29T11:14:56;1.60;;;1.50;;
22656;SDS011;11495;55.610;12.100;2023-07-29T11:17:21;1.70;;;1.50;;
22656;SDS011;11495;55.610;12.100;2023-07-29T11:19:47;1.35;;;1.25;;
22656;SDS011;11495;55.610;12.100;2023-07-29T11:22:13;1.80;;;1.70;;
22656;SDS011;11495;55.610;12.100;2023-07-29T11:24:41;1.53;;;1.43;;
22656;SDS011;11495;55.610;12.100;2023-07-29T11:27:10;1.98;;;1.52;;
22656;SDS011;11495;55.610;12.100;2023-07-29T11:29:36;1.60;;;1.45;;
22656;SDS011;11495;55.610;12.100;2023-07-29T11:32:02;2.03;;;1.40;;
22656;SDS011;11495;55.610;12.100;2023-07-29T11:34:31;1.98;;;1.77;;
22656;SDS011;11495;55.610;12.100;2023-07-29T11:36:56;1.35;;;1.25;;
22656;SDS011;11495;55.610;12.100;2023-07-29T11:39:21;1.53;;;1.43;;
22656;SDS011;11495;55.610;12.100;2023-07-29T11:41:47;1.57;;;1.47;;
22656;SDS011;11495;55.610;12.100;2023-07-29T11:44:16;1.20;;;1.10;;
22656;SDS011;11495;55.610;12.100;2023-07-29T11:46:41;1.50;;;1.40;;
22656;SDS011;11495;55.610;12.100;2023-07-29T11:49:07;2.08;;;1.58;;
22656;SDS011;11495;55.610;12.100;2023-07-29T11:51:33;1.33;;;1.23;;
22656;SDS011;11495;55.610;12.100;2023-07-29T11:53:58;2.57;;;1.60;;
22656;SDS011;11495;55.610;12.100;2023-07-29T11:56:23;1.23;;;1.13;;
22656;SDS011;11495;55.610;12.100;2023-07-29T11:58:49;1.30;;;1.20;;
22656;SDS011;11495;55.610;12.100;2023-07-29T12:01:14;1.77;;;1.48;;
22656;SDS011;11495;55.610;12.100;2023-07-29T12:03:39;2.03;;;1.40;;
22656;SDS011;11495;55.610;12.100;2023-07-29T12:06:05;1.50;;;1.40;;
22656;SDS011;11495;55.610;12.100;2023-07-29T12:08:30;1.27;;;1.17;;
22656;SDS011;11495;55.610;12.100;2023-07-29T12:10:55;1.63;;;1.53;;
22656;SDS011;11495;55.610;12.100;2023-07-29T12:13:23;0.90;;;0.90;;
22656;SDS011;11495;55.610;12.100;2023-07-29T12:15:49;1.30;;;1.20;;
22656;SDS011;11495;55.610;12.100;2023-07-29T12:18:14;2.00;;;1.80;;
22656;SDS011;11495;55.610;12.100;2023-07-29T12:20:40;1.60;;;1.50;;
22656;SDS011;11495;55.610;12.100;2023-07-29T12:23:05;1.93;;;1.53;;
22656;SDS011;11495;55.610;12.100;2023-07-29T12:25:32;1.40;;;1.30;;
22656;SDS011;11495;55.610;12.100;2023-07-29T12:28:05;1.80;;;1.70;;
22656;SDS011;11495;55.610;12.100;2023-07-29T12:30:30;1.62;;;1.45;;
22656;SDS011;11495;55.610;12.100;2023-07-29T12:32:55;2.55;;;1.42;;
22656;SDS011;11495;55.610;12.100;2023-07-29T12:35:21;1.55;;;1.45;;
22656;SDS011;11495;55.610;12.100;2023-07-29T12:37:58;1.48;;;1.37;;
22656;SDS011;11495;55.610;12.100;2023-07-29T12:40:24;1.67;;;1.58;;
22656;SDS011;11495;55.610;12.100;2023-07-29T12:42:50;1.92;;;1.73;;
22656;SDS011;11495;55.610;12.100;2023-07-29T12:45:16;3.85;;;2.08;;
22656;SDS011;11495;55.610;12.100;2023-07-29T12:47:42;1.60;;;1.50;;
22656;SDS011;11495;55.610;12.100;2023-07-29T12:50:08;1.83;;;1.47;;
22656;SDS011;11495;55.610;12.100;2023-07-29T12:52:33;1.45;;;1.35;;
22656;SDS011;11495;55.610;12.100;2023-07-29T12:54:58;1.63;;;1.47;;
22656;SDS011;11495;55.610;12.100;2023-07-29T12:57:23;2.07;;;1.57;;
22656;SDS011;11495;55.610;12.100;2023-07-29T12:59:49;1.53;;;1.43;;
22656;SDS011;11495;55.610;12.100;2023-07-29T13:02:14;2.07;;;1.43;;
22656;SDS011;11495;55.610;12.100;2023-07-29T13:04:39;1.43;;;1.33;;
22656;SDS011;11495;55.610;12.100;2023-07-29T13:07:07;1.47;;;1.37;;
22656;SDS011;11495;55.610;12.100;2023-07-29T13:09:33;1.73;;;1.62;;
22656;SDS011;11495;55.610;12.100;2023-07-29T13:11:58;1.50;;;1.40;;
22656;SDS011;11495;55.610;12.100;2023-07-29T13:14:23;1.45;;;1.20;;
22656;SDS011;11495;55.610;12.100;2023-07-29T13:16:51;1.23;;;1.12;;
22656;SDS011;11495;55.610;12.100;2023-07-29T13:19:16;1.57;;;1.47;;
22656;SDS011;11495;55.610;12.100;2023-07-29T13:21:43;2.30;;;1.50;;
22656;SDS011;11495;55.610;12.100;2023-07-29T13:24:08;1.63;;;1.53;;
22656;SDS011;11495;55.610;12.100;2023-07-29T13:26:33;1.30;;;1.20;;
22656;SDS011;11495;55.610;12.100;2023-07-29T13:28:59;1.60;;;1.50;;
22656;SDS011;11495;55.610;12.100;2023-07-29T13:31:24;1.85;;;1.73;;
22656;SDS011;11495;55.610;12.100;2023-07-29T13:33:50;1.42;;;1.33;;
22656;SDS011;11495;55.610;12.100;2023-07-29T13:36:15;1.50;;;1.40;;
22656;SDS011;11495;55.610;12.100;2023-07-29T13:38:41;1.60;;;1.50;;
22656;SDS011;11495;55.610;12.100;2023-07-29T13:41:06;2.72;;;1.60;;
22656;SDS011;11495;55.610;12.100;2023-07-29T13:43:31;5.37;;;1.67;;
22656;SDS011;11495;55.610;12.100;2023-07-29T13:45:57;1.70;;;1.50;;
22656;SDS011;11495;55.610;12.100;2023-07-29T13:48:22;1.40;;;1.30;;
22656;SDS011;11495;55.610;12.100;2023-07-29T13:50:47;1.83;;;1.40;;
22656;SDS011;11495;55.610;12.100;2023-07-29T13:53:13;1.60;;;1.30;;
22656;SDS011;11495;55.610;12.100;2023-07-29T13:55:38;1.92;;;1.80;;
22656;SDS011;11495;55.610;12.100;2023-07-29T13:58:03;1.37;;;1.27;;
22656;SDS011;11495;55.610;12.100;2023-07-29T14:00:29;1.37;;;1.27;;
22656;SDS011;11495;55.610;12.100;2023-07-29T14:02:54;1.70;;;1.60;;
22656;SDS011;11495;55.610;12.100;2023-07-29T14:05:19;1.77;;;1.67;;
22656;SDS011;11495;55.610;12.100;2023-07-29T14:07:44;1.43;;;1.33;;
22656;SDS011;11495;55.610;12.100;2023-07-29T14:10:10;2.60;;;1.40;;
22656;SDS011;11495;55.610;12.100;2023-07-29T14:12:35;3.28;;;1.77;;
22656;SDS011;11495;55.610;12.100;2023-07-29T14:15:00;1.37;;;1.27;;
22656;SDS011;11495;55.610;12.100;2023-07-29T14:17:26;1.77;;;1.65;;
22656;SDS011;11495;55.610;12.100;2023-07-29T14:19:51;1.80;;;1.67;;
22656;SDS011;11495;55.610;12.100;2023-07-29T14:22:16;2.03;;;1.70;;
22656;SDS011;11495;55.610;12.100;2023-07-29T14:24:41;1.63;;;1.50;;
22656;SDS011;11495;55.610;12.100;2023-07-29T14:27:06;1.73;;;1.40;;
22656;SDS011;11495;55.610;12.100;2023-07-29T14:29:32;1.50;;;1.40;;
22656;SDS011;11495;55.610;12.100;2023-07-29T14:31:57;2.77;;;1.40;;
22656;SDS011;11495;55.610;12.100;2023-07-29T14:34:22;1.98;;;1.87;;
22656;SDS011;11495;55.610;12.100;2023-07-29T14:36:48;1.58;;;1.45;;
22656;SDS011;11495;55.610;12.100;2023-07-29T14:39:13;1.33;;;1.23;;
22656;SDS011;11495;55.610;12.100;2023-07-29T14:41:38;1.70;;;1.60;;